createdAt,value
2022-12-31T00:01:56.623Z,22.10
2022-12-31T00:04:23.785Z,22.05
2022-12-31T00:06:52.190Z,22.03
2022-12-31T00:09:19.345Z,22.01
2022-12-31T00:11:46.413Z,22.01
2022-12-31T00:14:13.503Z,22.00
2022-12-31T00:16:42.139Z,21.97
2022-12-31T00:19:11.289Z,21.96
2022-12-31T00:21:39.310Z,21.83
2022-12-31T00:24:08.636Z,21.86
2022-12-31T00:26:35.856Z,21.86
2022-12-31T00:29:04.529Z,21.86
2022-12-31T00:31:33.392Z,21.82
2022-12-31T00:34:01.038Z,21.81
2022-12-31T00:36:30.021Z,21.89
2022-12-31T00:38:58.686Z,21.89
2022-12-31T00:41:28.402Z,21.89
2022-12-31T00:43:55.891Z,21.94
2022-12-31T00:46:23.614Z,21.93
2022-12-31T00:48:51.221Z,21.91
2022-12-31T00:51:21.514Z,21.90
2022-12-31T00:53:48.945Z,21.89
2022-12-31T00:56:18.714Z,21.86
2022-12-31T00:58:47.376Z,21.84
2022-12-31T01:01:16.994Z,21.84
2022-12-31T01:03:45.152Z,21.77
2022-12-31T01:06:12.616Z,21.83
2022-12-31T01:08:40.005Z,21.82
2022-12-31T01:11:07.492Z,21.76
2022-12-31T01:13:34.790Z,21.70
2022-12-31T01:16:09.402Z,21.73
2022-12-31T01:18:37.496Z,21.56
2022-12-31T01:21:06.650Z,21.71
2022-12-31T01:23:34.486Z,21.75
2022-12-31T01:26:02.561Z,21.75
2022-12-31T01:28:30.092Z,21.80
2022-12-31T01:30:57.550Z,21.83
2022-12-31T01:33:26.049Z,21.86
2022-12-31T01:35:53.130Z,21.86
2022-12-31T01:38:20.316Z,21.84
2022-12-31T01:40:47.643Z,21.84
2022-12-31T01:43:17.244Z,21.83
2022-12-31T01:45:47.805Z,21.75
2022-12-31T01:48:19.676Z,21.79
2022-12-31T01:50:48.684Z,21.77
2022-12-31T01:53:17.874Z,21.79
2022-12-31T01:55:49.096Z,21.79
2022-12-31T01:58:19.494Z,21.78
2022-12-31T02:00:47.733Z,21.78
2022-12-31T02:03:22.519Z,21.72
2022-12-31T02:05:57.764Z,21.71
2022-12-31T02:08:25.240Z,21.70
2022-12-31T02:10:52.378Z,21.55
2022-12-31T02:13:19.680Z,21.66
2022-12-31T02:15:54.794Z,21.71
2022-12-31T02:18:31.642Z,21.75
2022-12-31T02:21:29.469Z,21.80
2022-12-31T02:24:20.014Z,21.81
2022-12-31T02:26:55.891Z,21.82
2022-12-31T02:29:58.504Z,21.79
2022-12-31T02:32:35.090Z,21.79
2022-12-31T02:35:08.732Z,21.75
2022-12-31T02:37:39.385Z,21.71
2022-12-31T02:40:09.988Z,21.74
2022-12-31T02:42:37.095Z,21.74
2022-12-31T02:45:04.963Z,21.71
2022-12-31T02:47:51.233Z,21.73
2022-12-31T02:50:34.775Z,21.71
2022-12-31T02:53:18.850Z,21.73
2022-12-31T02:55:53.827Z,21.56
2022-12-31T02:58:27.513Z,21.65
2022-12-31T03:00:58.307Z,21.67
2022-12-31T03:03:27.621Z,21.57
2022-12-31T03:05:56.303Z,21.66
2022-12-31T03:08:24.693Z,21.58
2022-12-31T03:10:52.393Z,21.71
2022-12-31T03:13:19.494Z,21.74
2022-12-31T03:15:46.599Z,21.76
2022-12-31T03:18:15.852Z,21.74
2022-12-31T03:20:46.698Z,21.73
2022-12-31T03:23:16.576Z,21.71
2022-12-31T03:25:44.061Z,21.70
2022-12-31T03:28:13.149Z,21.67
2022-12-31T03:30:42.468Z,21.74
2022-12-31T03:33:09.646Z,21.66
2022-12-31T03:35:39.051Z,21.69
2022-12-31T03:38:08.068Z,21.63
2022-12-31T03:40:39.257Z,21.56
2022-12-31T03:43:06.357Z,21.59
2022-12-31T03:45:33.455Z,21.61
2022-12-31T03:48:01.003Z,21.46
2022-12-31T03:50:28.441Z,21.55
2022-12-31T03:52:55.544Z,21.61
2022-12-31T03:55:24.137Z,21.61
2022-12-31T03:57:51.488Z,21.52
2022-12-31T04:00:22.001Z,21.63
2022-12-31T04:02:49.939Z,21.73
2022-12-31T04:05:18.132Z,21.74
2022-12-31T04:07:45.780Z,21.70
2022-12-31T04:10:15.411Z,21.67
2022-12-31T04:12:44.474Z,21.67
2022-12-31T04:15:15.945Z,21.63
2022-12-31T04:17:43.073Z,21.69
2022-12-31T04:20:11.270Z,21.75
2022-12-31T04:22:38.391Z,21.77
2022-12-31T04:25:07.813Z,21.75
2022-12-31T04:27:34.869Z,21.51
2022-12-31T04:30:03.870Z,21.74
2022-12-31T04:32:30.953Z,21.81
2022-12-31T04:34:58.130Z,21.92
2022-12-31T04:37:25.241Z,21.90
2022-12-31T04:39:52.303Z,21.84
2022-12-31T04:42:19.440Z,21.75
2022-12-31T04:44:46.559Z,21.75
2022-12-31T04:47:18.746Z,21.80
2022-12-31T04:49:50.443Z,21.83
2022-12-31T04:52:17.511Z,21.82
2022-12-31T04:54:44.565Z,21.89
2022-12-31T04:57:11.652Z,21.95
2022-12-31T04:59:38.733Z,21.95
2022-12-31T05:02:06.016Z,21.91
2022-12-31T05:04:34.539Z,21.91
2022-12-31T05:07:01.607Z,21.95
2022-12-31T05:09:28.671Z,22.01
2022-12-31T05:11:55.812Z,21.99
2022-12-31T05:14:22.889Z,21.97
2022-12-31T05:16:50.051Z,21.99
2022-12-31T05:19:17.228Z,21.99
2022-12-31T05:21:45.852Z,21.95
2022-12-31T05:24:12.907Z,21.98
2022-12-31T05:26:39.995Z,21.97
2022-12-31T05:29:07.072Z,22.01
2022-12-31T05:31:34.133Z,21.95
2022-12-31T05:34:01.224Z,21.89
2022-12-31T05:36:28.327Z,21.81
2022-12-31T05:38:56.777Z,21.81
2022-12-31T05:41:23.872Z,21.83
2022-12-31T05:43:50.939Z,21.85
2022-12-31T05:46:18.052Z,21.92
2022-12-31T05:48:45.151Z,21.90
2022-12-31T05:51:12.246Z,21.86
2022-12-31T05:53:39.319Z,21.86
2022-12-31T05:56:07.800Z,21.84
2022-12-31T05:58:34.876Z,21.86
2022-12-31T06:01:02.014Z,21.82
2022-12-31T06:03:29.201Z,21.88
2022-12-31T06:05:56.287Z,21.86
2022-12-31T06:08:23.378Z,21.89
2022-12-31T06:10:50.490Z,21.71
2022-12-31T06:13:18.930Z,21.88
2022-12-31T06:15:46.051Z,21.92
2022-12-31T06:18:13.196Z,21.93
2022-12-31T06:20:40.344Z,21.94
2022-12-31T06:23:07.395Z,21.92
2022-12-31T06:25:34.949Z,21.91
2022-12-31T06:28:02.017Z,21.78
2022-12-31T06:30:30.705Z,21.77
2022-12-31T06:32:57.900Z,21.80
2022-12-31T06:35:25.046Z,21.79
2022-12-31T06:37:52.245Z,21.85
2022-12-31T06:40:19.344Z,21.85
2022-12-31T06:42:46.435Z,21.99
2022-12-31T06:45:13.525Z,22.17
2022-12-31T06:47:42.080Z,22.06
2022-12-31T06:50:09.342Z,22.24
2022-12-31T06:52:36.743Z,22.02
2022-12-31T06:55:05.016Z,21.86
2022-12-31T06:57:32.544Z,22.04
2022-12-31T07:00:00.175Z,21.80
2022-12-31T07:02:48.764Z,21.74
2022-12-31T07:05:30.970Z,22.29
2022-12-31T07:08:08.623Z,22.70
2022-12-31T07:10:46.833Z,22.88
2022-12-31T07:13:37.113Z,22.78
2022-12-31T07:16:17.709Z,22.65
2022-12-31T07:18:50.896Z,22.83
2022-12-31T07:21:29.786Z,22.76
2022-12-31T07:23:57.417Z,22.72
2022-12-31T07:26:35.339Z,22.71
2022-12-31T07:29:11.690Z,22.68
2022-12-31T07:31:52.801Z,22.65
2022-12-31T07:34:31.938Z,22.61
2022-12-31T07:37:07.744Z,22.51
2022-12-31T07:39:41.557Z,22.50
2022-12-31T07:42:16.428Z,22.50
2022-12-31T07:44:58.796Z,22.41
2022-12-31T07:47:28.223Z,22.36
2022-12-31T07:49:56.855Z,22.42
2022-12-31T07:52:26.042Z,22.54
2022-12-31T07:54:53.105Z,22.50
2022-12-31T07:57:22.836Z,22.50
2022-12-31T08:00:03.508Z,22.49
2022-12-31T08:02:53.811Z,22.39
2022-12-31T08:05:29.252Z,22.30
2022-12-31T08:08:07.036Z,22.34
2022-12-31T08:10:38.868Z,22.36
2022-12-31T08:13:10.336Z,22.35
2022-12-31T08:15:38.347Z,22.34
2022-12-31T08:18:06.580Z,22.37
2022-12-31T08:20:39.702Z,22.46
2022-12-31T08:23:22.109Z,22.44
2022-12-31T08:26:11.349Z,22.34
2022-12-31T08:28:53.772Z,22.39
2022-12-31T08:31:25.206Z,22.41
2022-12-31T08:34:05.780Z,22.34
2022-12-31T08:36:41.703Z,22.38
2022-12-31T08:39:22.344Z,22.38
2022-12-31T08:41:52.899Z,22.40
2022-12-31T08:44:29.009Z,22.41
2022-12-31T08:47:05.860Z,22.40
2022-12-31T08:49:35.193Z,22.42
2022-12-31T08:52:03.079Z,22.40
2022-12-31T08:54:32.162Z,22.38
2022-12-31T08:57:09.216Z,22.39
2022-12-31T08:59:43.548Z,22.46
2022-12-31T09:02:27.286Z,22.43
2022-12-31T09:05:04.700Z,22.47
2022-12-31T09:07:36.974Z,22.50
2022-12-31T09:10:17.551Z,22.59
2022-12-31T09:12:56.780Z,22.63
2022-12-31T09:15:33.460Z,22.69
2022-12-31T09:18:01.118Z,22.64
2022-12-31T09:20:42.181Z,22.64
2022-12-31T09:23:11.459Z,22.66
2022-12-31T09:25:46.747Z,22.65
2022-12-31T09:28:17.778Z,22.72
2022-12-31T09:30:50.971Z,22.75
2022-12-31T09:33:31.306Z,22.68
2022-12-31T09:36:03.149Z,22.70
2022-12-31T09:38:37.362Z,22.74
2022-12-31T09:41:16.132Z,22.74
2022-12-31T09:44:23.325Z,22.69
2022-12-31T09:47:28.663Z,22.72
2022-12-31T09:50:18.843Z,22.72
2022-12-31T09:53:03.292Z,22.79
2022-12-31T09:55:37.766Z,22.81
2022-12-31T09:58:23.683Z,22.89
2022-12-31T10:00:55.494Z,22.73
2022-12-31T10:03:51.939Z,22.82
2022-12-31T10:06:24.371Z,22.83
2022-12-31T10:09:13.189Z,22.78
2022-12-31T10:11:57.590Z,22.99
2022-12-31T10:14:45.321Z,23.71
2022-12-31T10:17:27.365Z,23.88
2022-12-31T10:20:32.996Z,23.62
2022-12-31T10:23:35.481Z,23.30
2022-12-31T10:26:16.077Z,23.25
2022-12-31T10:28:53.959Z,23.22
2022-12-31T10:31:38.945Z,23.03
2022-12-31T10:34:14.899Z,22.83
2022-12-31T10:36:53.049Z,22.78
2022-12-31T10:39:31.923Z,22.75
2022-12-31T10:42:31.773Z,22.71
2022-12-31T10:45:26.375Z,22.68
2022-12-31T10:48:20.547Z,22.65
2022-12-31T10:51:11.777Z,22.72
2022-12-31T10:54:02.538Z,22.73
2022-12-31T10:57:10.108Z,22.73
2022-12-31T11:00:02.991Z,22.77
2022-12-31T11:03:01.553Z,22.75
2022-12-31T11:05:58.882Z,22.76
2022-12-31T11:08:43.186Z,22.80
2022-12-31T11:11:28.641Z,22.73
2022-12-31T11:14:22.741Z,22.44
2022-12-31T11:17:08.754Z,22.62
2022-12-31T11:19:49.380Z,22.66
2022-12-31T11:22:29.108Z,22.63
2022-12-31T11:25:18.364Z,22.52
2022-12-31T11:28:13.087Z,22.47
2022-12-31T11:30:51.182Z,22.44
2022-12-31T11:33:31.572Z,22.45
2022-12-31T11:36:15.630Z,22.45
2022-12-31T11:38:51.378Z,22.44
2022-12-31T11:41:25.306Z,22.48
2022-12-31T11:44:00.396Z,22.51
2022-12-31T11:46:49.072Z,22.54
2022-12-31T11:49:34.729Z,22.51
2022-12-31T11:52:26.113Z,22.56
2022-12-31T11:55:03.278Z,22.49
2022-12-31T11:57:34.534Z,22.51
2022-12-31T12:00:06.554Z,22.51
2022-12-31T12:02:37.328Z,22.46
2022-12-31T12:05:10.967Z,22.46
2022-12-31T12:07:38.650Z,22.45
2022-12-31T12:10:22.419Z,22.46
2022-12-31T12:12:50.513Z,22.45
2022-12-31T12:15:22.734Z,22.40
2022-12-31T12:17:53.899Z,22.38
2022-12-31T12:20:27.980Z,22.32
2022-12-31T12:22:58.350Z,22.29
2022-12-31T12:25:36.541Z,22.33
2022-12-31T12:28:17.446Z,22.38
2022-12-31T12:30:45.361Z,22.57
2022-12-31T12:33:18.336Z,22.79
2022-12-31T12:35:46.320Z,22.93
2022-12-31T12:38:17.147Z,23.13
2022-12-31T12:40:55.618Z,23.64
2022-12-31T12:43:25.339Z,23.46
2022-12-31T12:45:54.073Z,23.40
2022-12-31T12:48:35.319Z,24.06
2022-12-31T12:51:13.215Z,24.20
2022-12-31T12:53:51.012Z,24.16
2022-12-31T12:56:35.089Z,24.15
2022-12-31T12:59:29.004Z,24.09
2022-12-31T13:02:03.040Z,24.01
2022-12-31T13:04:47.741Z,24.02
2022-12-31T13:07:24.597Z,23.52
2022-12-31T13:10:05.265Z,23.19
2022-12-31T13:13:13.785Z,22.80
2022-12-31T13:15:36.573Z,22.68
2022-12-31T13:18:16.606Z,22.51
2022-12-31T13:20:47.765Z,22.34
2022-12-31T13:23:21.090Z,22.37
2022-12-31T13:26:04.654Z,22.26
2022-12-31T13:28:35.968Z,22.11
2022-12-31T13:31:09.637Z,21.90
2022-12-31T13:33:41.469Z,22.58
2022-12-31T13:36:13.562Z,22.86
2022-12-31T13:38:43.449Z,22.98
2022-12-31T13:41:17.336Z,23.10
2022-12-31T13:43:53.950Z,23.07
2022-12-31T13:46:26.188Z,22.74
2022-12-31T13:48:57.031Z,22.80
2022-12-31T13:51:34.123Z,22.94
2022-12-31T13:54:06.645Z,22.89
2022-12-31T13:56:37.506Z,22.69
2022-12-31T13:59:13.934Z,22.83
2022-12-31T14:01:44.639Z,22.95
2022-12-31T14:04:15.885Z,22.96
2022-12-31T14:06:50.271Z,22.81
2022-12-31T14:09:22.147Z,22.67
2022-12-31T14:12:22.553Z,22.87
2022-12-31T14:14:59.529Z,22.71
2022-12-31T14:17:33.552Z,22.80
2022-12-31T14:20:12.770Z,22.75
2022-12-31T14:22:49.560Z,22.75
2022-12-31T14:25:23.353Z,22.75
2022-12-31T14:27:54.720Z,22.72
2022-12-31T14:30:28.068Z,22.70
2022-12-31T14:33:22.325Z,22.63
2022-12-31T14:36:13.743Z,22.50
2022-12-31T14:38:53.124Z,22.49
2022-12-31T14:41:32.915Z,22.40
2022-12-31T14:44:09.954Z,22.37
2022-12-31T14:46:51.798Z,22.32
2022-12-31T14:49:33.329Z,22.15
2022-12-31T14:52:08.921Z,22.18
2022-12-31T14:54:37.693Z,22.08
2022-12-31T14:57:11.815Z,22.14
2022-12-31T14:59:40.850Z,22.13
2022-12-31T15:02:28.251Z,22.13
2022-12-31T15:05:15.040Z,22.15
2022-12-31T15:07:55.801Z,22.17
2022-12-31T15:10:35.301Z,22.11
2022-12-31T15:13:05.749Z,22.17
2022-12-31T15:15:56.251Z,22.14
2022-12-31T15:18:37.231Z,22.07
2022-12-31T15:21:38.938Z,22.13
2022-12-31T15:24:17.677Z,22.11
2022-12-31T15:26:49.681Z,22.10
2022-12-31T15:29:30.082Z,22.06
2022-12-31T15:31:59.936Z,22.09
2022-12-31T15:34:30.200Z,22.07
2022-12-31T15:36:59.861Z,21.98
2022-12-31T15:39:38.709Z,22.00
2022-12-31T15:42:37.953Z,21.94
2022-12-31T15:45:11.803Z,21.86
2022-12-31T15:47:43.000Z,21.93
2022-12-31T15:50:18.620Z,21.96
2022-12-31T15:52:50.405Z,21.95
2022-12-31T15:55:25.782Z,21.96
2022-12-31T15:57:55.699Z,22.01
2022-12-31T16:00:24.226Z,22.06
2022-12-31T16:02:53.964Z,22.06
2022-12-31T16:05:25.054Z,22.03
2022-12-31T16:07:53.896Z,22.07
2022-12-31T16:10:24.989Z,22.03
2022-12-31T16:12:54.032Z,22.05
2022-12-31T16:15:23.761Z,22.03
2022-12-31T16:18:05.684Z,22.02
2022-12-31T16:20:41.161Z,21.91
2022-12-31T16:23:19.902Z,21.97
2022-12-31T16:25:47.215Z,22.00
2022-12-31T16:28:17.963Z,22.02
2022-12-31T16:30:45.391Z,21.97
2022-12-31T16:33:14.891Z,21.91
2022-12-31T16:35:43.347Z,21.93
2022-12-31T16:38:13.828Z,21.88
2022-12-31T16:40:43.218Z,21.95
2022-12-31T16:43:25.595Z,21.94
2022-12-31T16:45:54.784Z,21.95
2022-12-31T16:48:22.017Z,22.02
2022-12-31T16:50:53.338Z,22.05
2022-12-31T16:53:24.206Z,21.90
2022-12-31T16:55:54.757Z,22.06
2022-12-31T16:58:27.374Z,22.05
2022-12-31T17:00:59.924Z,22.02
2022-12-31T17:03:28.481Z,22.02
2022-12-31T17:06:11.580Z,22.00
2022-12-31T17:08:41.257Z,21.98
2022-12-31T17:11:23.338Z,21.96
2022-12-31T17:13:56.995Z,21.96
2022-12-31T17:16:25.170Z,21.96
2022-12-31T17:18:52.526Z,21.95
2022-12-31T17:21:25.469Z,21.95
2022-12-31T17:23:55.309Z,21.85
2022-12-31T17:26:25.357Z,21.88
2022-12-31T17:28:55.042Z,21.89
2022-12-31T17:31:30.865Z,21.91
2022-12-31T17:34:29.896Z,21.90
2022-12-31T17:37:18.172Z,21.85
2022-12-31T17:39:49.822Z,21.92
2022-12-31T17:42:25.560Z,21.95
2022-12-31T17:44:55.907Z,21.96
2022-12-31T17:47:23.102Z,21.97
2022-12-31T17:49:50.307Z,21.92
2022-12-31T17:52:18.709Z,21.97
2022-12-31T17:54:45.975Z,21.95
2022-12-31T17:57:24.086Z,21.96
2022-12-31T17:59:51.371Z,21.88
2022-12-31T18:02:18.538Z,21.93
2022-12-31T18:04:45.669Z,21.92
2022-12-31T18:07:12.774Z,21.81
2022-12-31T18:09:41.193Z,21.87
2022-12-31T18:12:08.337Z,21.87
2022-12-31T18:14:35.422Z,21.82
2022-12-31T18:17:02.513Z,21.81
2022-12-31T18:20:02.813Z,21.77
2022-12-31T18:22:17.265Z,21.83
2022-12-31T18:24:45.929Z,21.83
2022-12-31T18:27:15.962Z,21.79
2022-12-31T18:29:43.363Z,21.78
2022-12-31T18:32:19.423Z,21.86
2022-12-31T18:34:46.548Z,21.90
2022-12-31T18:37:21.293Z,21.81
2022-12-31T18:39:50.431Z,21.91
2022-12-31T18:42:18.874Z,21.89
2022-12-31T18:44:46.535Z,21.88
2022-12-31T18:47:14.807Z,21.88
2022-12-31T18:49:42.077Z,21.84
2022-12-31T18:52:12.947Z,21.41
2022-12-31T18:54:40.219Z,21.83
2022-12-31T18:57:10.055Z,21.80
2022-12-31T18:59:37.141Z,21.77
2022-12-31T19:02:04.817Z,21.76
2022-12-31T19:04:31.926Z,21.77
2022-12-31T19:06:59.015Z,21.70
2022-12-31T19:12:15.047Z,21.71
2022-12-31T19:14:42.380Z,21.72
2022-12-31T19:19:35.433Z,21.78
2022-12-31T19:22:02.583Z,21.71
2022-12-31T19:24:29.845Z,21.79
2022-12-31T19:26:56.910Z,21.82
2022-12-31T19:29:27.465Z,21.89
2022-12-31T19:31:55.015Z,21.86
2022-12-31T19:34:22.152Z,21.87
2022-12-31T19:36:49.271Z,21.82
2022-12-31T19:39:18.909Z,21.81
2022-12-31T19:41:49.155Z,21.79
2022-12-31T19:44:21.669Z,21.72
2022-12-31T19:46:50.090Z,21.74
2022-12-31T19:49:17.160Z,21.71
2022-12-31T19:51:44.261Z,21.73
2022-12-31T19:54:12.995Z,21.67
2022-12-31T19:56:40.350Z,21.72
2022-12-31T19:59:09.457Z,21.61
2022-12-31T20:01:36.654Z,21.57
2022-12-31T20:04:05.359Z,21.62
2022-12-31T20:06:32.652Z,21.63
2022-12-31T20:08:59.846Z,21.71
2022-12-31T20:11:27.304Z,21.72
2022-12-31T20:13:54.507Z,21.73
2022-12-31T20:16:23.324Z,21.79
2022-12-31T20:18:50.455Z,21.77
2022-12-31T20:21:20.906Z,21.80
2022-12-31T20:23:48.470Z,21.79
2022-12-31T20:26:15.856Z,21.77
2022-12-31T20:28:43.000Z,21.71
2022-12-31T20:31:12.275Z,21.73
2022-12-31T20:33:39.621Z,21.73
2022-12-31T20:36:09.194Z,21.73
2022-12-31T20:38:37.838Z,21.67
2022-12-31T20:41:06.275Z,21.65
2022-12-31T20:43:34.017Z,21.65
2022-12-31T20:46:10.953Z,21.56
2022-12-31T20:48:42.194Z,21.61
2022-12-31T20:51:09.318Z,21.58
2022-12-31T20:53:37.735Z,21.52
2022-12-31T20:56:05.179Z,21.58
2022-12-31T20:58:32.448Z,21.58
2022-12-31T21:00:59.802Z,21.62
2022-12-31T21:06:14.762Z,21.70
2022-12-31T21:08:43.648Z,21.67
2022-12-31T21:11:11.009Z,21.62
2022-12-31T21:13:38.100Z,21.71
2022-12-31T21:16:05.514Z,21.72
2022-12-31T21:18:32.630Z,21.70
2022-12-31T21:20:59.857Z,21.73
2022-12-31T21:23:26.941Z,21.66
2022-12-31T21:25:55.338Z,21.55
2022-12-31T21:28:22.425Z,21.64
2022-12-31T21:30:49.553Z,21.60
2022-12-31T21:33:16.724Z,21.55
2022-12-31T21:35:50.140Z,21.47
2022-12-31T21:38:20.962Z,21.45
2022-12-31T21:40:48.118Z,21.51
2022-12-31T21:43:16.633Z,21.46
2022-12-31T21:45:44.126Z,21.48
2022-12-31T21:48:12.492Z,21.43
2022-12-31T21:50:39.549Z,21.11
2022-12-31T21:53:06.645Z,21.48
2022-12-31T21:55:33.726Z,21.52
2022-12-31T21:58:25.875Z,21.54
2022-12-31T22:00:50.325Z,21.53
2022-12-31T22:03:17.416Z,21.63
2022-12-31T22:05:50.480Z,21.67
2022-12-31T22:08:18.469Z,21.71
2022-12-31T22:10:52.138Z,21.59
2022-12-31T22:13:20.400Z,21.61
2022-12-31T22:16:03.890Z,21.61
2022-12-31T22:18:32.309Z,21.56
2022-12-31T22:21:04.089Z,21.55
2022-12-31T22:23:32.392Z,21.52
2022-12-31T22:26:00.293Z,21.47
2022-12-31T22:28:38.199Z,21.47
2022-12-31T22:31:07.890Z,21.47
2022-12-31T22:33:35.077Z,21.46
2022-12-31T22:36:04.460Z,21.43
2022-12-31T22:38:33.064Z,21.45
2022-12-31T22:41:04.890Z,21.27
2022-12-31T22:43:32.112Z,21.45
2022-12-31T22:46:05.068Z,21.51
2022-12-31T22:48:33.644Z,21.55
2022-12-31T22:51:00.757Z,21.59
2022-12-31T22:53:27.885Z,21.52
2022-12-31T22:55:55.555Z,21.59
2022-12-31T22:58:24.143Z,21.63
2022-12-31T23:00:52.284Z,21.63
2022-12-31T23:03:19.581Z,21.63
2022-12-31T23:05:50.032Z,21.60
2022-12-31T23:08:23.360Z,21.58
2022-12-31T23:10:53.315Z,21.56
2022-12-31T23:13:20.823Z,21.52
2022-12-31T23:15:47.923Z,21.41
2022-12-31T23:18:15.022Z,21.45
2022-12-31T23:20:42.117Z,21.45
2022-12-31T23:23:14.480Z,21.45
2022-12-31T23:25:43.167Z,21.42
2022-12-31T23:28:12.629Z,21.36
2022-12-31T23:30:40.568Z,21.32
2022-12-31T23:33:12.198Z,21.33
2022-12-31T23:35:39.310Z,21.30
2022-12-31T23:38:06.494Z,21.31
2022-12-31T23:40:34.938Z,21.32
2022-12-31T23:43:02.985Z,21.48
2022-12-31T23:45:33.315Z,21.51
2022-12-31T23:48:00.870Z,21.52
2022-12-31T23:50:28.329Z,21.57
2022-12-31T23:52:55.413Z,21.58
2022-12-31T23:55:22.546Z,21.61
2022-12-31T23:57:51.026Z,21.66
